createdAt,value
2019-05-23T00:00:40.003Z,27.20
2019-05-23T00:03:20.047Z,27.40
2019-05-23T00:06:02.922Z,27.50
2019-05-23T00:08:41.725Z,27.50
2019-05-23T00:11:39.597Z,27.70
2019-05-23T00:14:27.293Z,27.90
2019-05-23T00:17:05.635Z,27.90
2019-05-23T00:19:42.208Z,28.10
2019-05-23T00:22:19.301Z,28.10
2019-05-23T00:24:56.932Z,28.20
2019-05-23T00:27:35.539Z,28.40
2019-05-23T00:30:14.759Z,28.20
2019-05-23T00:32:57.445Z,28.40
2019-05-23T00:35:34.900Z,28.50
2019-05-23T00:38:11.290Z,28.50
2019-05-23T00:40:49.617Z,28.30
2019-05-23T00:43:29.028Z,28.50
2019-05-23T00:46:06.139Z,28.70
2019-05-23T00:48:42.422Z,28.80
2019-05-23T00:51:20.309Z,28.90
2019-05-23T00:53:57.776Z,29.00
2019-05-23T00:56:34.450Z,29.00
2019-05-23T00:59:26.035Z,29.10
2019-05-23T01:01:50.490Z,29.10
2019-05-23T01:04:27.246Z,29.10
2019-05-23T01:07:04.075Z,29.30
2019-05-23T01:09:41.615Z,29.50
2019-05-23T01:12:19.509Z,29.60
2019-05-23T01:14:56.795Z,29.80
2019-05-23T01:17:35.050Z,29.60
2019-05-23T01:20:14.117Z,29.80
2019-05-23T01:22:51.615Z,30.00
2019-05-23T01:25:28.400Z,29.90
2019-05-23T01:28:05.132Z,30.10
2019-05-23T01:30:45.753Z,30.20
2019-05-23T01:33:22.765Z,30.20
2019-05-23T01:35:59.374Z,30.30
2019-05-23T01:38:36.091Z,30.30
2019-05-23T01:41:14.106Z,30.40
2019-05-23T01:43:51.406Z,30.60
2019-05-23T01:46:29.427Z,30.80
2019-05-23T01:49:06.093Z,31.00
2019-05-23T01:51:41.955Z,31.00
2019-05-23T01:54:19.566Z,31.10
2019-05-23T01:56:56.749Z,31.20
2019-05-23T01:59:33.294Z,31.40
2019-05-23T02:02:09.801Z,31.40
2019-05-23T02:04:46.560Z,31.50
2019-05-23T02:07:23.072Z,31.50
2019-05-23T02:09:59.966Z,31.30
2019-05-23T02:12:37.385Z,31.20
2019-05-23T02:15:15.562Z,31.30
2019-05-23T02:17:52.009Z,31.20
2019-05-23T02:20:28.632Z,31.40
2019-05-23T02:23:06.147Z,31.90
2019-05-23T02:25:43.881Z,31.80
2019-05-23T02:28:21.957Z,31.80
2019-05-23T02:30:59.450Z,31.30
2019-05-23T02:33:36.764Z,31.60
2019-05-23T02:36:14.617Z,31.90
2019-05-23T02:39:18.469Z,32.00
2019-05-23T02:42:00.185Z,32.40
2019-05-23T02:44:37.398Z,31.70
2019-05-23T02:47:25.649Z,31.90
2019-05-23T02:50:03.984Z,32.30
2019-05-23T02:52:45.369Z,32.50
2019-05-23T02:55:32.288Z,31.70
2019-05-23T02:58:27.138Z,31.80
2019-05-23T03:01:34.175Z,32.00
2019-05-23T03:04:14.842Z,32.60
2019-05-23T03:06:52.532Z,32.30
2019-05-23T03:09:31.301Z,32.30
2019-05-23T03:12:11.052Z,32.40
2019-05-23T03:14:48.174Z,32.30
2019-05-23T03:17:28.376Z,32.40
2019-05-23T03:20:07.387Z,32.60
2019-05-23T03:22:56.180Z,32.50
2019-05-23T03:26:20.902Z,32.40
2019-05-23T03:28:57.805Z,32.20
2019-05-23T03:31:49.103Z,32.50
2019-05-23T03:34:28.709Z,32.80
2019-05-23T03:37:06.535Z,32.80
2019-05-23T03:39:42.829Z,33.30
2019-05-23T03:42:20.597Z,33.10
2019-05-23T03:44:57.374Z,33.00
2019-05-23T03:47:35.198Z,32.60
2019-05-23T03:50:13.837Z,32.70
2019-05-23T03:52:51.777Z,32.70
2019-05-23T03:55:29.945Z,33.10
2019-05-23T03:58:07.101Z,33.00
2019-05-23T04:00:48.868Z,32.90
2019-05-23T04:03:25.592Z,32.90
2019-05-23T04:06:03.337Z,32.90
2019-05-23T04:08:39.676Z,33.10
2019-05-23T04:11:16.108Z,33.00
2019-05-23T04:13:52.330Z,33.00
2019-05-23T04:16:30.687Z,33.10
2019-05-23T04:19:10.985Z,33.50
2019-05-23T04:21:47.624Z,32.70
2019-05-23T04:24:24.517Z,32.80
2019-05-23T04:27:01.408Z,33.00
2019-05-23T04:29:37.793Z,32.90
2019-05-23T04:32:13.690Z,33.40
2019-05-23T04:34:50.408Z,33.10
2019-05-23T04:37:27.030Z,33.40
2019-05-23T04:40:04.105Z,33.70
2019-05-23T04:42:41.215Z,33.30
2019-05-23T04:45:17.919Z,33.20
2019-05-23T04:47:54.244Z,33.10
2019-05-23T04:50:30.882Z,33.30
2019-05-23T04:53:08.627Z,33.50
2019-05-23T04:55:47.090Z,33.20
2019-05-23T04:58:23.998Z,33.50
2019-05-23T05:01:00.501Z,33.80
2019-05-23T05:03:37.185Z,33.50
2019-05-23T05:06:13.704Z,33.70
2019-05-23T05:08:50.112Z,34.40
2019-05-23T05:11:30.318Z,34.00
2019-05-23T05:14:05.559Z,33.60
2019-05-23T05:16:42.281Z,33.40
2019-05-23T05:19:19.434Z,33.80
2019-05-23T05:21:56.260Z,34.20
2019-05-23T05:24:32.901Z,34.30
2019-05-23T05:27:11.587Z,34.20
2019-05-23T05:29:48.426Z,34.00
2019-05-23T05:32:41.499Z,33.70
2019-05-23T05:35:02.617Z,33.60
2019-05-23T05:37:39.550Z,33.90
2019-05-23T05:40:16.639Z,34.10
2019-05-23T05:42:53.322Z,34.40
2019-05-23T05:45:29.947Z,34.30
2019-05-23T05:48:06.870Z,34.50
2019-05-23T05:50:44.403Z,34.60
2019-05-23T05:53:21.131Z,34.50
2019-05-23T05:55:57.627Z,34.20
2019-05-23T05:58:34.192Z,34.30
2019-05-23T06:01:12.801Z,34.10
2019-05-23T06:03:49.792Z,33.70
2019-05-23T06:06:37.267Z,33.20
2019-05-23T06:09:29.270Z,32.80
2019-05-23T06:12:07.051Z,33.30
2019-05-23T06:14:46.510Z,33.90
2019-05-23T06:17:22.906Z,34.50
2019-05-23T06:19:59.266Z,34.00
2019-05-23T06:22:35.970Z,34.60
2019-05-23T06:25:14.412Z,34.50
2019-05-23T06:27:50.954Z,33.70
2019-05-23T06:30:32.499Z,33.80
2019-05-23T06:33:22.479Z,34.70
2019-05-23T06:35:47.712Z,35.20
2019-05-23T06:38:24.653Z,34.70
2019-05-23T06:41:03.004Z,34.40
2019-05-23T06:43:40.852Z,34.10
2019-05-23T06:46:18.612Z,33.70
2019-05-23T06:48:55.141Z,33.70
2019-05-23T06:51:32.853Z,33.00
2019-05-23T06:54:10.721Z,32.80
2019-05-23T06:56:47.230Z,32.60
2019-05-23T06:59:24.531Z,32.90
2019-05-23T07:02:01.578Z,33.70
2019-05-23T07:04:38.853Z,33.80
2019-05-23T07:07:15.893Z,33.60
2019-05-23T07:09:52.417Z,33.50
2019-05-23T07:12:29.527Z,33.50
2019-05-23T07:15:06.092Z,33.20
2019-05-23T07:17:43.569Z,33.60
2019-05-23T07:20:20.824Z,33.60
2019-05-23T07:22:57.613Z,33.50
2019-05-23T07:25:34.445Z,33.40
2019-05-23T07:28:11.036Z,33.30
2019-05-23T07:30:47.356Z,33.40
2019-05-23T07:33:23.875Z,33.20
2019-05-23T07:36:01.208Z,33.10
2019-05-23T07:38:37.320Z,33.10
2019-05-23T07:41:13.862Z,33.10
2019-05-23T07:43:50.434Z,33.30
2019-05-23T07:46:27.035Z,33.90
2019-05-23T07:49:03.844Z,34.00
2019-05-23T07:52:03.517Z,34.00
2019-05-23T07:54:51.139Z,34.30
2019-05-23T07:57:27.765Z,34.60
2019-05-23T08:00:05.346Z,34.50
2019-05-23T08:02:42.817Z,33.90
2019-05-23T08:05:20.821Z,33.80
2019-05-23T08:07:58.184Z,33.40
2019-05-23T08:10:35.740Z,33.20
2019-05-23T08:13:11.960Z,33.00
2019-05-23T08:15:49.227Z,32.90
2019-05-23T08:18:26.387Z,32.90
2019-05-23T08:21:02.821Z,33.00
2019-05-23T08:23:39.256Z,33.00
2019-05-23T08:26:17.387Z,33.10
2019-05-23T08:29:22.171Z,33.20
2019-05-23T08:31:33.770Z,33.50
2019-05-23T08:34:10.247Z,34.10
2019-05-23T08:36:46.932Z,34.40
2019-05-23T08:39:25.083Z,34.50
2019-05-23T08:42:02.032Z,34.30
2019-05-23T08:44:38.967Z,34.20
2019-05-23T08:47:16.461Z,34.50
2019-05-23T08:49:53.512Z,34.70
2019-05-23T08:52:29.839Z,34.50
2019-05-23T08:55:09.665Z,34.10
2019-05-23T08:57:46.652Z,34.00
2019-05-23T09:00:24.018Z,33.90
2019-05-23T09:03:01.514Z,33.90
2019-05-23T09:05:39.884Z,33.80
2019-05-23T09:08:17.339Z,33.80
2019-05-23T09:10:54.222Z,33.80
2019-05-23T09:13:31.678Z,34.00
2019-05-23T09:16:08.178Z,34.10
2019-05-23T09:18:44.811Z,34.00
2019-05-23T09:21:21.697Z,34.00
2019-05-23T09:23:58.806Z,34.20
2019-05-23T09:26:35.729Z,34.50
2019-05-23T09:29:12.664Z,34.80
2019-05-23T09:31:49.189Z,34.70
2019-05-23T09:34:25.434Z,34.60
2019-05-23T09:37:01.957Z,34.40
2019-05-23T09:39:39.609Z,34.50
2019-05-23T09:42:16.240Z,34.40
2019-05-23T09:44:52.663Z,34.60
2019-05-23T09:47:30.406Z,34.60
2019-05-23T09:50:08.022Z,34.20
2019-05-23T09:52:44.960Z,34.00
2019-05-23T09:55:22.331Z,33.50
2019-05-23T09:57:59.052Z,33.30
2019-05-23T10:00:36.913Z,33.10
2019-05-23T10:03:14.315Z,33.00
2019-05-23T10:05:52.026Z,32.80
2019-05-23T10:08:29.111Z,32.00
2019-05-23T10:11:05.493Z,31.80
2019-05-23T10:13:42.300Z,30.50
2019-05-23T10:16:19.237Z,30.70
2019-05-23T10:18:55.853Z,30.60
2019-05-23T10:21:32.602Z,30.00
2019-05-23T10:24:09.388Z,29.60
2019-05-23T10:26:46.034Z,28.50
2019-05-23T10:29:22.888Z,27.90
2019-05-23T10:31:59.443Z,27.50
2019-05-23T10:34:35.593Z,27.50
2019-05-23T10:37:14.249Z,27.30
2019-05-23T10:39:55.258Z,26.80
2019-05-23T10:42:32.048Z,26.50
2019-05-23T10:45:10.091Z,26.50
2019-05-23T10:47:46.362Z,26.70
2019-05-23T10:50:22.716Z,26.90
2019-05-23T10:52:59.049Z,27.50
2019-05-23T10:55:35.846Z,26.90
2019-05-23T10:58:19.324Z,27.40
2019-05-23T11:00:56.026Z,27.90
2019-05-23T11:06:16.229Z,27.10
2019-05-23T11:08:50.542Z,26.80
2019-05-23T11:11:27.272Z,26.90
2019-05-23T11:14:08.200Z,26.40
2019-05-23T11:16:42.416Z,26.30
2019-05-23T11:19:20.131Z,26.60
2019-05-23T11:21:56.905Z,26.80
2019-05-23T11:24:33.467Z,26.80
2019-05-23T11:27:10.452Z,26.50
2019-05-23T11:29:47.017Z,26.70
2019-05-23T12:19:46.395Z,26.20
2019-05-23T12:22:24.277Z,26.20
2019-05-23T12:25:19.576Z,26.10
2019-05-23T12:27:38.549Z,26.10
2019-05-23T12:32:45.138Z,25.50
2019-05-23T12:35:22.066Z,25.20
2019-05-23T12:38:02.235Z,25.70
2019-05-23T12:40:36.646Z,25.30
2019-05-23T12:43:13.301Z,25.50
2019-05-23T12:45:49.802Z,25.40
2019-05-23T12:48:43.180Z,25.30
2019-05-23T12:53:53.713Z,25.60
2019-05-23T12:56:33.113Z,25.80
2019-05-23T12:59:14.019Z,25.30
2019-05-23T13:01:53.167Z,25.10
2019-05-23T13:04:32.698Z,25.00
2019-05-23T13:07:12.681Z,25.10
2019-05-23T13:09:51.988Z,25.50
2019-05-23T13:12:30.452Z,25.60
2019-05-23T13:15:10.920Z,25.80
2019-05-23T13:17:49.973Z,25.60
2019-05-23T13:20:29.704Z,25.50
2019-05-23T13:23:10.643Z,25.80
2019-05-23T13:25:49.281Z,25.60
2019-05-23T13:28:27.582Z,25.60
2019-05-23T13:31:06.761Z,25.50
2019-05-23T13:33:46.181Z,25.60
2019-05-23T13:36:24.793Z,25.60
2019-05-23T13:39:03.644Z,25.60
2019-05-23T13:41:42.862Z,25.70
2019-05-23T13:44:32.781Z,25.60
2019-05-23T13:47:00.760Z,25.60
2019-05-23T13:49:39.857Z,25.60
2019-05-23T13:52:18.239Z,25.50
2019-05-23T13:54:56.459Z,25.60
2019-05-23T13:57:34.643Z,25.60
2019-05-23T14:00:13.283Z,25.60
2019-05-23T14:02:52.089Z,25.60
2019-05-23T14:05:31.833Z,25.50
2019-05-23T14:08:12.695Z,25.50
2019-05-23T14:10:51.705Z,25.50
2019-05-23T14:13:31.597Z,25.60
2019-05-23T14:16:10.807Z,25.60
2019-05-23T14:18:49.985Z,25.50
2019-05-23T14:21:30.527Z,25.50
2019-05-23T14:24:08.929Z,25.60
2019-05-23T14:26:54.438Z,25.60
2019-05-23T14:29:32.642Z,25.60
2019-05-23T14:32:28.720Z,25.70
2019-05-23T14:35:07.721Z,25.60
2019-05-23T14:37:48.472Z,25.60
2019-05-23T14:40:27.395Z,25.50
2019-05-23T14:43:14.501Z,25.20
2019-05-23T14:46:11.496Z,25.10
2019-05-23T14:49:14.429Z,25.10
2019-05-23T14:52:25.168Z,25.10
2019-05-23T14:55:10.231Z,25.20
2019-05-23T14:57:46.204Z,25.20
2019-05-23T15:00:26.345Z,25.20
2019-05-23T15:05:54.072Z,25.20
2019-05-23T15:08:49.801Z,25.10
2019-05-23T15:11:10.219Z,25.20
2019-05-23T15:13:47.848Z,25.20
2019-05-23T15:16:24.916Z,25.30
2019-05-23T15:19:01.798Z,25.20
2019-05-23T15:21:38.516Z,25.20
2019-05-23T15:24:15.477Z,25.20
2019-05-23T15:26:52.606Z,25.20
2019-05-23T15:29:30.205Z,25.40
2019-05-23T15:32:07.278Z,25.30
2019-05-23T15:34:43.805Z,25.40
2019-05-23T15:37:21.845Z,25.40
2019-05-23T15:39:58.442Z,25.50
2019-05-23T15:42:35.312Z,25.40
2019-05-23T15:45:12.958Z,25.20
2019-05-23T15:47:50.616Z,25.30
2019-05-23T15:50:30.525Z,25.20
2019-05-23T15:53:13.549Z,25.10
2019-05-23T15:56:27.540Z,25.20
2019-05-23T15:59:22.547Z,25.20
2019-05-23T16:02:07.296Z,25.30
2019-05-23T16:04:44.528Z,25.30
2019-05-23T16:07:20.970Z,25.20
2019-05-23T16:09:57.224Z,25.30
2019-05-23T16:12:33.697Z,25.30
2019-05-23T16:15:11.148Z,25.20
2019-05-23T16:17:48.213Z,25.20
2019-05-23T16:20:24.589Z,25.20
2019-05-23T16:23:01.161Z,25.20
2019-05-23T16:25:37.733Z,25.20
2019-05-23T16:28:14.218Z,25.10
2019-05-23T16:33:23.548Z,25.10
2019-05-23T16:36:00.058Z,25.10
2019-05-23T16:38:36.458Z,25.00
2019-05-23T16:41:12.868Z,24.90
2019-05-23T16:43:49.862Z,25.10
2019-05-23T16:46:26.405Z,25.10
2019-05-23T16:49:03.162Z,25.20
2019-05-23T16:51:40.136Z,25.30
2019-05-23T16:54:21.620Z,25.30
2019-05-23T16:57:22.776Z,25.40
2019-05-23T17:00:19.773Z,25.30
2019-05-23T17:03:15.443Z,25.30
2019-05-23T17:06:28.296Z,25.30
2019-05-23T17:09:21.525Z,25.20
2019-05-23T17:12:15.226Z,25.20
2019-05-23T17:14:57.098Z,25.20
2019-05-23T17:18:02.297Z,25.10
2019-05-23T17:20:46.172Z,25.10
2019-05-23T17:23:40.269Z,25.10
2019-05-23T17:26:25.947Z,25.20
2019-05-23T17:29:03.315Z,25.30
2019-05-23T17:31:40.974Z,25.40
2019-05-23T17:34:17.472Z,25.40
2019-05-23T17:36:54.343Z,25.30
2019-05-23T17:39:31.408Z,25.30
2019-05-23T17:42:08.285Z,25.30
2019-05-23T17:44:45.131Z,25.40
2019-05-23T17:47:21.950Z,25.30
2019-05-23T17:49:58.925Z,25.20
2019-05-23T17:52:35.487Z,25.30
2019-05-23T17:55:12.161Z,25.20
2019-05-23T17:57:48.496Z,25.10
2019-05-23T18:00:29.364Z,25.10
2019-05-23T18:03:06.242Z,25.20
2019-05-23T18:05:43.010Z,25.30
2019-05-23T18:08:20.216Z,25.40
2019-05-23T18:10:57.792Z,25.30
2019-05-23T18:13:42.704Z,25.30
2019-05-23T18:16:20.875Z,25.40
2019-05-23T18:18:57.385Z,25.30
2019-05-23T18:21:34.252Z,25.30
2019-05-23T18:24:13.062Z,25.30
2019-05-23T18:26:50.070Z,25.30
2019-05-23T18:29:26.774Z,25.30
2019-05-23T18:32:04.417Z,25.50
2019-05-23T18:34:41.761Z,25.40
2019-05-23T18:37:19.096Z,25.40
2019-05-23T18:39:56.012Z,25.40
2019-05-23T18:42:32.979Z,25.40
2019-05-23T18:45:10.709Z,25.30
2019-05-23T18:47:47.663Z,25.30
2019-05-23T18:50:25.248Z,25.40
2019-05-23T18:53:01.781Z,25.30
2019-05-23T18:55:38.811Z,25.30
2019-05-23T18:58:19.378Z,25.40
2019-05-23T19:01:24.805Z,25.40
2019-05-23T19:04:01.806Z,25.30
2019-05-23T19:06:38.638Z,25.40
2019-05-23T19:09:17.170Z,25.40
2019-05-23T19:11:54.011Z,25.50
2019-05-23T19:14:30.511Z,25.50
2019-05-23T19:17:08.859Z,25.50
2019-05-23T19:19:45.966Z,25.40
2019-05-23T19:22:22.771Z,25.50
2019-05-23T19:25:00.577Z,25.50
2019-05-23T19:27:37.996Z,25.60
2019-05-23T19:30:15.129Z,25.30
2019-05-23T19:32:51.065Z,25.10
2019-05-23T19:35:28.308Z,25.10
2019-05-23T19:38:04.684Z,25.00
2019-05-23T19:40:41.766Z,25.00
2019-05-23T19:43:20.488Z,25.00
2019-05-23T19:45:57.420Z,25.10
2019-05-23T19:48:34.010Z,25.10
2019-05-23T19:51:11.549Z,25.10
2019-05-23T19:53:48.811Z,25.10
2019-05-23T19:56:26.703Z,25.20
2019-05-23T19:59:03.306Z,25.20
2019-05-23T20:01:57.908Z,25.20
2019-05-23T20:04:37.245Z,25.30
2019-05-23T20:07:15.591Z,25.40
2019-05-23T20:09:52.720Z,25.40
2019-05-23T20:12:29.259Z,25.30
2019-05-23T20:15:06.067Z,25.20
2019-05-23T20:17:42.734Z,25.30
2019-05-23T20:20:19.094Z,25.40
2019-05-23T20:22:55.298Z,25.40
2019-05-23T20:25:32.723Z,25.50
2019-05-23T20:28:10.315Z,25.40
2019-05-23T20:31:04.495Z,25.20
2019-05-23T20:33:41.158Z,25.10
2019-05-23T20:36:18.499Z,25.20
2019-05-23T20:38:54.909Z,25.20
2019-05-23T20:41:31.756Z,25.20
2019-05-23T20:44:08.265Z,25.20
2019-05-23T20:46:45.135Z,25.20
2019-05-23T20:49:21.794Z,25.20
2019-05-23T20:51:58.416Z,25.20
2019-05-23T20:54:35.112Z,25.20
2019-05-23T20:57:12.374Z,25.20
2019-05-23T20:59:49.387Z,25.30
2019-05-23T21:02:26.356Z,25.20
2019-05-23T21:05:03.333Z,25.40
2019-05-23T21:07:39.628Z,25.40
2019-05-23T21:10:18.876Z,25.40
2019-05-23T21:12:55.043Z,25.40
2019-05-23T21:15:31.754Z,25.10
2019-05-23T21:18:08.410Z,25.10
2019-05-23T21:20:45.057Z,25.10
2019-05-23T21:23:21.541Z,25.10
2019-05-23T21:26:09.513Z,25.20
2019-05-23T21:28:45.575Z,25.30
2019-05-23T21:31:27.206Z,25.30
2019-05-23T21:34:04.885Z,25.30
2019-05-23T21:36:41.394Z,25.40
2019-05-23T21:39:18.070Z,25.40
2019-05-23T21:41:54.113Z,25.40
2019-05-23T21:44:30.728Z,25.30
2019-05-23T21:47:07.221Z,25.40
2019-05-23T21:49:43.533Z,25.20
2019-05-23T21:52:20.192Z,25.30
2019-05-23T21:54:56.354Z,25.20
2019-05-23T21:57:33.049Z,25.20
2019-05-23T22:00:12.027Z,25.30
2019-05-23T22:02:49.696Z,25.30
2019-05-23T22:05:26.496Z,25.30
2019-05-23T22:08:02.993Z,25.30
2019-05-23T22:10:39.683Z,25.30
2019-05-23T22:13:19.826Z,25.40
2019-05-23T22:15:54.960Z,25.50
2019-05-23T22:18:31.690Z,25.30
2019-05-23T22:21:08.579Z,25.40
2019-05-23T22:23:44.984Z,25.30
2019-05-23T22:26:21.589Z,25.30
2019-05-23T22:28:58.386Z,25.20
2019-05-23T22:31:34.971Z,25.20
2019-05-23T22:34:27.061Z,25.20
2019-05-23T22:37:05.015Z,25.40
2019-05-23T22:39:43.163Z,25.30
2019-05-23T22:42:20.298Z,25.30
2019-05-23T22:44:56.724Z,25.30
2019-05-23T22:47:33.457Z,25.30
2019-05-23T22:50:10.338Z,25.20
2019-05-23T22:52:47.333Z,25.20
2019-05-23T22:55:24.878Z,25.20
2019-05-23T22:58:02.216Z,25.20
2019-05-23T23:00:40.043Z,25.20
2019-05-23T23:03:16.712Z,25.20
2019-05-23T23:05:53.359Z,25.20
2019-05-23T23:08:30.780Z,25.20
2019-05-23T23:11:07.473Z,25.30
2019-05-23T23:13:44.167Z,25.30
2019-05-23T23:16:20.497Z,25.40
2019-05-23T23:18:56.977Z,25.40
2019-05-23T23:21:33.908Z,25.40
2019-05-23T23:24:10.892Z,25.50
2019-05-23T23:26:47.396Z,25.50
2019-05-23T23:29:24.397Z,25.30
2019-05-23T23:32:03.767Z,25.20
2019-05-23T23:34:39.462Z,25.30
2019-05-23T23:37:17.591Z,25.30
2019-05-23T23:39:54.319Z,25.30
2019-05-23T23:42:32.383Z,25.30
2019-05-23T23:45:26.356Z,25.20
2019-05-23T23:48:19.607Z,25.30
2019-05-23T23:51:13.084Z,25.40
2019-05-23T23:54:07.075Z,25.40
2019-05-23T23:57:00.445Z,25.30
2019-05-23T23:59:35.265Z,25.40
